Time;durP1;ratioP1;P1;durP2;ratioP2;P2;SDS_P1;SDS_P2;PMS_P1;PMS_P2;Temp;Humidity;BMP_temperature;BMP_pressure;BME280_temperature;BME280_humidity;BME280_pressure;Samples;Min_cycle;Max_cycle;Signal;HPM_P1;HPM_P2
2024/01/31 08:28:10;;;;;;;27.02;18.13;;;8.30;74.30;;;;;;5041863;28;20048;-79
2024/01/31 08:30:36;;;;;;;26.60;17.88;;;8.40;72.20;;;;;;5044069;28;20037;-79
2024/01/31 08:33:02;;;;;;;31.48;18.73;;;8.40;71.80;;;;;;5053186;28;20037;-78
2024/01/31 08:35:28;;;;;;;25.85;17.95;;;8.30;71.40;;;;;;5059969;28;20517;-80
2024/01/31 08:37:55;;;;;;;26.02;17.85;;;8.30;71.60;;;;;;5056559;28;20040;-80
2024/01/31 08:40:21;;;;;;;28.05;18.92;;;8.50;71.90;;;;;;5034847;28;20556;-81
2024/01/31 08:42:46;;;;;;;29.35;19.00;;;8.50;71.50;;;;;;5052915;28;20033;-80
2024/01/31 08:45:13;;;;;;;31.55;18.63;;;8.60;71.10;;;;;;5030972;28;20048;-81
2024/01/31 08:47:39;;;;;;;24.73;17.88;;;8.70;71.30;;;;;;5050285;28;20033;-82
2024/01/31 08:50:05;;;;;;;27.42;18.55;;;8.70;70.90;;;;;;5057723;28;20732;-82
2024/01/31 08:52:31;;;;;;;35.53;19.92;;;8.70;70.80;;;;;;5051552;28;20521;-82
2024/01/31 08:54:57;;;;;;;26.13;18.17;;;8.70;70.70;;;;;;5055856;28;20033;-85
2024/01/31 08:57:23;;;;;;;27.98;18.58;;;8.70;71.10;;;;;;5061119;28;20048;-85
2024/01/31 08:59:49;;;;;;;29.27;19.20;;;8.70;71.00;;;;;;5034927;28;20155;-82
2024/01/31 09:02:15;;;;;;;28.83;18.98;;;8.80;70.90;;;;;;5051635;28;20181;-83
2024/01/31 09:04:41;;;;;;;25.67;19.38;;;8.80;71.00;;;;;;5051837;28;20033;-82
2024/01/31 09:07:07;;;;;;;39.13;20.27;;;8.80;70.80;;;;;;5014953;28;20038;-84
2024/01/31 09:09:37;;;;;;;25.17;18.83;;;8.80;70.70;;;;;;5018791;28;20026;-82
2024/01/31 09:12:05;;;;;;;27.33;18.25;;;8.90;70.80;;;;;;5032614;28;20072;-83
2024/01/31 09:14:31;;;;;;;26.63;18.55;;;8.90;71.00;;;;;;5032537;28;20121;-81
2024/01/31 09:16:57;;;;;;;70.63;21.27;;;9.00;70.50;;;;;;5050405;28;20525;-81
2024/01/31 09:19:23;;;;;;;25.52;17.80;;;9.10;70.60;;;;;;5053083;28;20037;-82
2024/01/31 09:21:48;;;;;;;22.95;17.13;;;9.20;70.10;;;;;;5053340;28;20402;-84
2024/01/31 09:24:14;;;;;;;23.48;17.27;;;9.20;70.20;;;;;;5052139;28;20108;-83
2024/01/31 09:26:40;;;;;;;25.20;17.55;;;9.20;70.00;;;;;;5051676;28;20064;-84
2024/01/31 09:29:05;;;;;;;24.83;17.27;;;9.20;69.90;;;;;;5051809;28;20132;-84
2024/01/31 09:31:32;;;;;;;26.05;17.70;;;9.30;70.00;;;;;;5051767;28;20114;-83
2024/01/31 09:33:57;;;;;;;26.48;18.33;;;9.50;69.90;;;;;;5052335;28;20078;-84
2024/01/31 09:36:24;;;;;;;26.83;19.73;;;9.60;69.70;;;;;;5052099;28;20132;-82
2024/01/31 09:38:50;;;;;;;25.52;17.80;;;9.70;69.80;;;;;;5053167;28;20431;-80
2024/01/31 09:41:16;;;;;;;25.38;17.40;;;9.70;69.10;;;;;;5052136;28;20104;-83
2024/01/31 09:43:46;;;;;;;25.48;18.17;;;9.80;69.50;;;;;;5052815;28;20228;-85
2024/01/31 09:46:12;;;;;;;23.25;16.55;;;9.90;69.30;;;;;;5051842;28;20035;-84
2024/01/31 09:48:39;;;;;;;23.05;17.20;;;9.90;69.00;;;;;;5052259;28;20036;-83
2024/01/31 09:51:06;;;;;;;28.80;18.77;;;9.90;68.80;;;;;;5034474;28;20099;-84
2024/01/31 09:53:33;;;;;;;27.90;17.17;;;10.00;67.80;;;;;;5053739;28;20343;-82
2024/01/31 09:56:00;;;;;;;27.63;18.13;;;10.10;67.60;;;;;;5062550;28;20036;-83
2024/01/31 09:58:26;;;;;;;24.92;19.23;;;10.10;67.60;;;;;;5055429;28;20036;-83
2024/01/31 10:00:53;;;;;;;24.83;17.70;;;10.20;67.80;;;;;;5052003;28;20111;-83
2024/01/31 10:03:18;;;;;;;26.27;18.60;;;10.30;67.30;;;;;;5051223;28;20098;-79
2024/01/31 10:05:44;;;;;;;25.92;18.30;;;10.40;67.70;;;;;;5050286;28;20041;-80
2024/01/31 10:08:10;;;;;;;30.00;19.13;;;10.50;67.50;;;;;;5056059;28;20075;-79
2024/01/31 10:10:39;;;;;;;28.10;17.73;;;10.60;67.10;;;;;;5056412;28;20527;-82
2024/01/31 10:13:09;;;;;;;25.75;18.63;;;10.70;67.20;;;;;;5057731;28;20076;-85
2024/01/31 10:15:35;;;;;;;26.50;19.15;;;10.70;66.80;;;;;;5055698;28;20498;-79
2024/01/31 10:18:01;;;;;;;29.27;19.30;;;10.80;66.90;;;;;;5055446;28;20033;-78
2024/01/31 10:20:27;;;;;;;31.10;20.38;;;10.90;66.90;;;;;;5038056;28;20033;-82
2024/01/31 10:22:53;;;;;;;30.02;19.52;;;11.00;66.70;;;;;;5056481;28;20047;-81
2024/01/31 10:25:18;;;;;;;28.65;19.25;;;11.00;66.70;;;;;;5055633;28;20025;-84
2024/01/31 10:27:49;;;;;;;27.45;18.50;;;11.20;66.60;;;;;;5054650;28;20061;-78
2024/01/31 10:30:15;;;;;;;27.10;17.38;;;11.30;66.40;;;;;;5054992;28;20391;-78
2024/01/31 10:32:42;;;;;;;26.25;17.75;;;11.30;65.90;;;;;;5055646;28;20606;-78
2024/01/31 10:35:08;;;;;;;26.15;18.42;;;11.40;65.80;;;;;;5054838;28;20025;-81
2024/01/31 10:37:34;;;;;;;27.65;18.08;;;11.50;65.40;;;;;;5054729;28;20083;-83
2024/01/31 10:40:01;;;;;;;25.33;17.05;;;11.60;65.40;;;;;;5055072;28;20029;-83
2024/01/31 10:42:27;;;;;;;27.77;17.45;;;11.60;65.10;;;;;;5055707;28;20120;-79
2024/01/31 10:44:54;;;;;;;27.77;18.63;;;11.70;64.80;;;;;;5055158;28;20104;-82
2024/01/31 10:47:20;;;;;;;29.73;19.30;;;11.80;64.80;;;;;;5054845;28;20122;-82
2024/01/31 10:49:45;;;;;;;31.10;18.98;;;12.00;64.60;;;;;;5055511;28;20479;-83
2024/01/31 10:52:15;;;;;;;32.28;19.50;;;12.10;64.00;;;;;;5055073;28;20125;-82
2024/01/31 10:54:48;;;;;;;32.45;18.48;;;12.20;64.10;;;;;;5056316;28;20060;-81
2024/01/31 10:57:14;;;;;;;24.63;17.25;;;12.40;63.90;;;;;;5037272;28;20041;-80
2024/01/31 10:59:40;;;;;;;22.98;16.15;;;12.40;63.50;;;;;;5055017;28;20037;-85
2024/01/31 11:02:14;;;;;;;25.20;17.35;;;12.50;63.50;;;;;;5054832;28;20391;-82
2024/01/31 11:04:40;;;;;;;22.15;17.42;;;12.60;63.40;;;;;;5054555;28;20049;-81
2024/01/31 11:07:05;;;;;;;24.08;17.05;;;12.80;63.20;;;;;;5054354;28;20029;-82
2024/01/31 11:09:31;;;;;;;29.10;17.17;;;12.80;62.60;;;;;;5054168;28;20041;-84
2024/01/31 11:12:11;;;;;;;23.88;17.70;;;12.90;62.00;;;;;;5056226;28;20041;-82
2024/01/31 11:14:39;;;;;;;27.25;18.67;;;13.10;62.50;;;;;;5067239;28;20032;-81
2024/01/31 11:17:09;;;;;;;25.50;17.98;;;13.30;62.10;;;;;;5034025;28;20080;-83
2024/01/31 11:19:43;;;;;;;24.27;18.10;;;13.40;62.00;;;;;;5043838;28;20398;-80
2024/01/31 11:22:09;;;;;;;25.02;18.23;;;13.60;62.00;;;;;;5050912;28;20041;-81
2024/01/31 11:24:42;;;;;;;25.23;16.33;;;13.70;60.90;;;;;;5053327;28;20141;-83
2024/01/31 11:27:08;;;;;;;23.42;17.02;;;13.70;60.80;;;;;;5052111;28;20044;-82
2024/01/31 11:29:34;;;;;;;23.60;17.50;;;13.70;60.40;;;;;;5054159;28;20078;-80
2024/01/31 11:32:01;;;;;;;25.50;16.73;;;13.80;60.60;;;;;;5053691;28;20096;-79
2024/01/31 11:34:27;;;;;;;31.02;16.88;;;13.90;60.70;;;;;;5054148;28;20036;-80
2024/01/31 11:36:52;;;;;;;22.10;16.23;;;14.00;60.00;;;;;;5037508;28;20037;-78
2024/01/31 11:39:18;;;;;;;26.17;16.30;;;14.00;59.80;;;;;;5036825;28;20138;-83
2024/01/31 11:41:44;;;;;;;28.30;15.32;;;14.10;60.00;;;;;;5054327;28;20429;-80
2024/01/31 11:44:09;;;;;;;19.90;14.82;;;14.20;59.80;;;;;;5036411;28;20067;-83
2024/01/31 11:46:35;;;;;;;24.70;15.07;;;14.20;59.50;;;;;;5038885;28;20510;-82
2024/01/31 11:49:01;;;;;;;24.33;15.98;;;14.30;59.60;;;;;;5034369;28;20041;-81
2024/01/31 11:51:27;;;;;;;26.98;15.35;;;14.40;59.30;;;;;;5037196;28;20034;-77
2024/01/31 11:53:54;;;;;;;27.10;15.07;;;14.50;59.50;;;;;;5060281;28;20078;-81
2024/01/31 11:56:19;;;;;;;18.90;14.77;;;14.40;59.10;;;;;;5053570;28;20152;-76
2024/01/31 11:58:46;;;;;;;22.13;14.85;;;14.50;58.90;;;;;;5054022;28;20104;-79
2024/01/31 12:01:11;;;;;;;23.65;15.43;;;14.50;58.70;;;;;;5054047;28;20033;-85
2024/01/31 12:03:37;;;;;;;18.80;14.15;;;14.60;58.50;;;;;;5053984;28;20033;-81
2024/01/31 12:06:04;;;;;;;22.08;14.77;;;14.70;58.20;;;;;;5035659;28;20135;-82
2024/01/31 12:08:33;;;;;;;20.40;13.88;;;14.80;57.60;;;;;;5053290;28;20457;-80
2024/01/31 12:10:59;;;;;;;24.70;14.30;;;14.90;57.90;;;;;;5035398;28;20040;-78
2024/01/31 12:13:24;;;;;;;21.35;14.52;;;15.00;57.30;;;;;;5053343;28;20033;-76
2024/01/31 12:15:50;;;;;;;23.65;14.45;;;15.10;57.90;;;;;;5053327;28;20040;-74
2024/01/31 12:18:16;;;;;;;22.23;13.93;;;15.10;57.20;;;;;;5053376;28;20056;-75
2024/01/31 12:20:42;;;;;;;17.27;13.27;;;15.20;56.80;;;;;;5052520;28;20032;-75
2024/01/31 12:23:08;;;;;;;19.63;13.70;;;15.20;56.70;;;;;;5052912;28;20040;-75
2024/01/31 12:25:34;;;;;;;19.02;12.77;;;15.20;56.30;;;;;;5060001;22;20123;-77
2024/01/31 12:28:03;;;;;;;24.67;13.38;;;15.10;55.80;;;;;;5051264;28;20086;-73
2024/01/31 12:30:29;;;;;;;18.90;13.30;;;15.10;55.70;;;;;;5051860;28;20029;-73
2024/01/31 12:32:54;;;;;;;19.42;13.13;;;15.10;55.60;;;;;;5052362;28;20354;-72
2024/01/31 12:35:20;;;;;;;18.30;12.50;;;15.10;55.50;;;;;;5047308;28;20025;-72
2024/01/31 12:37:46;;;;;;;21.67;14.05;;;15.20;55.60;;;;;;5032495;28;20116;-74
2024/01/31 12:40:12;;;;;;;20.13;13.27;;;15.20;55.40;;;;;;5036733;28;20028;-74
2024/01/31 12:42:38;;;;;;;19.35;13.50;;;15.20;55.00;;;;;;5052139;28;20037;-74
2024/01/31 12:45:04;;;;;;;18.80;13.52;;;15.20;54.40;;;;;;5050791;28;20029;-74
2024/01/31 12:47:32;;;;;;;20.13;12.85;;;15.20;54.90;;;;;;5052106;28;20053;-74
2024/01/31 12:49:58;;;;;;;18.38;13.07;;;15.20;54.20;;;;;;5044268;28;20036;-73
2024/01/31 12:52:24;;;;;;;18.13;13.00;;;15.20;54.10;;;;;;5037141;28;20076;-73
2024/01/31 12:54:51;;;;;;;18.67;13.27;;;15.20;54.10;;;;;;5032830;28;20033;-72
2024/01/31 12:57:17;;;;;;;22.67;13.80;;;15.20;53.70;;;;;;5043337;28;20490;-71
2024/01/31 12:59:43;;;;;;;22.98;12.85;;;15.20;53.70;;;;;;5052087;28;20048;-72
2024/01/31 13:02:09;;;;;;;16.17;11.85;;;15.30;53.40;;;;;;5052861;28;20467;-74
2024/01/31 13:04:35;;;;;;;19.23;12.02;;;15.40;53.60;;;;;;5052719;28;20494;-72
2024/01/31 13:07:00;;;;;;;19.75;12.63;;;15.40;52.50;;;;;;5052564;28;20041;-73
2024/01/31 13:09:26;;;;;;;18.85;11.45;;;15.40;52.20;;;;;;5051764;28;20108;-73
2024/01/31 13:11:52;;;;;;;20.00;12.40;;;15.50;52.40;;;;;;5049606;28;20497;-72
2024/01/31 13:14:18;;;;;;;18.63;12.27;;;15.60;52.00;;;;;;5036672;28;20550;-71
2024/01/31 13:16:44;;;;;;;19.63;12.85;;;15.70;51.90;;;;;;5032432;28;20041;-72
2024/01/31 13:19:10;;;;;;;19.70;12.38;;;15.60;52.10;;;;;;5041234;22;20053;-72
2024/01/31 13:21:38;;;;;;;18.60;12.10;;;15.40;52.10;;;;;;5029739;28;20044;-73
2024/01/31 13:24:04;;;;;;;21.67;12.45;;;15.40;52.30;;;;;;5031355;28;20033;-71
2024/01/31 13:26:32;;;;;;;17.00;11.50;;;15.50;52.50;;;;;;5030407;28;20052;-72
2024/01/31 13:28:58;;;;;;;19.85;13.82;;;15.50;52.60;;;;;;5030996;28;20030;-72
2024/01/31 13:31:24;;;;;;;22.98;14.25;;;15.60;52.60;;;;;;5031468;28;20044;-72
2024/01/31 13:33:49;;;;;;;22.17;14.20;;;15.70;52.60;;;;;;5031897;28;20029;-74
2024/01/31 13:36:15;;;;;;;21.30;14.02;;;15.70;52.40;;;;;;5031408;28;20037;-73
2024/01/31 13:38:41;;;;;;;23.88;14.23;;;15.70;52.60;;;;;;5032098;28;20034;-72
2024/01/31 13:41:06;;;;;;;20.13;13.63;;;15.70;52.70;;;;;;5030975;28;20033;-72
2024/01/31 13:43:34;;;;;;;18.20;12.63;;;15.80;53.20;;;;;;5030790;28;20044;-72
2024/01/31 13:45:59;;;;;;;20.77;12.93;;;15.90;53.50;;;;;;5030157;28;20420;-69
2024/01/31 13:48:25;;;;;;;19.70;14.05;;;16.00;53.60;;;;;;5029120;28;20108;-73
2024/01/31 13:50:51;;;;;;;22.77;14.57;;;16.00;53.60;;;;;;5030242;28;20037;-73
2024/01/31 13:53:16;;;;;;;19.63;13.52;;;16.10;53.70;;;;;;5030867;28;20148;-72
2024/01/31 13:55:42;;;;;;;20.77;14.63;;;16.10;54.00;;;;;;5031711;28;20108;-72
2024/01/31 13:58:08;;;;;;;20.77;13.75;;;16.00;53.80;;;;;;5031785;28;20084;-73
2024/01/31 14:00:33;;;;;;;25.23;15.13;;;16.10;54.20;;;;;;5031409;28;20034;-73
2024/01/31 14:02:59;;;;;;;23.70;14.75;;;16.20;54.20;;;;;;5031740;28;20491;-71
2024/01/31 14:05:25;;;;;;;19.88;14.88;;;16.10;54.20;;;;;;5031813;28;20030;-73
2024/01/31 14:07:50;;;;;;;21.67;15.57;;;16.10;53.90;;;;;;5032388;28;20034;-73
2024/01/31 14:10:16;;;;;;;19.83;14.75;;;16.10;54.10;;;;;;5031873;28;20029;-74
2024/01/31 14:12:42;;;;;;;24.48;15.35;;;16.20;54.20;;;;;;5031537;28;20392;-73
2024/01/31 14:15:08;;;;;;;23.27;14.85;;;16.20;54.20;;;;;;5031852;28;20502;-72
2024/01/31 14:17:34;;;;;;;23.90;15.82;;;16.30;54.30;;;;;;5031679;28;20082;-73
2024/01/31 14:19:59;;;;;;;22.70;15.90;;;16.20;54.00;;;;;;5031370;28;20099;-72
2024/01/31 14:22:25;;;;;;;23.25;15.02;;;16.30;54.00;;;;;;5031570;28;20033;-71
2024/01/31 14:24:50;;;;;;;23.67;16.05;;;16.20;54.10;;;;;;5014155;28;20033;-72
2024/01/31 14:27:16;;;;;;;21.60;15.63;;;16.20;54.10;;;;;;5031710;28;20087;-72
2024/01/31 14:29:42;;;;;;;23.10;15.32;;;16.20;54.40;;;;;;5031564;28;20029;-71
2024/01/31 14:32:12;;;;;;;20.40;13.80;;;16.10;55.10;;;;;;5031162;28;20042;-71
2024/01/31 14:34:38;;;;;;;16.88;13.18;;;16.10;55.90;;;;;;5031521;28;20080;-73
2024/01/31 14:37:04;;;;;;;17.63;13.07;;;16.10;57.10;;;;;;5031300;28;20034;-72
2024/01/31 14:39:29;;;;;;;18.45;12.90;;;16.10;58.40;;;;;;5031412;28;20041;-73
2024/01/31 14:41:55;;;;;;;19.25;12.32;;;16.00;60.00;;;;;;5030989;28;20031;-73
2024/01/31 14:44:21;;;;;;;18.50;13.55;;;16.00;60.80;;;;;;5031216;28;20030;-73
2024/01/31 14:46:47;;;;;;;17.95;13.15;;;16.00;62.20;;;;;;5031149;28;20475;-72
2024/01/31 14:49:12;;;;;;;17.88;12.68;;;15.90;63.00;;;;;;5031357;28;20069;-73
2024/01/31 14:51:38;;;;;;;19.15;13.18;;;15.80;64.20;;;;;;5031793;28;20029;-72
2024/01/31 14:54:07;;;;;;;17.55;12.38;;;15.80;64.60;;;;;;5034773;28;20038;-72
2024/01/31 14:56:56;;;;;;;17.83;12.88;;;15.80;64.90;;;;;;5033476;28;20395;-73
2024/01/31 14:59:22;;;;;;;16.98;12.68;;;15.70;64.90;;;;;;5034397;28;20033;-73
2024/01/31 15:01:53;;;;;;;14.75;12.07;;;15.70;65.90;;;;;;5034599;28;20029;-72
2024/01/31 15:04:19;;;;;;;16.83;11.85;;;15.70;66.20;;;;;;5034646;28;20131;-73
2024/01/31 15:06:44;;;;;;;19.92;11.75;;;15.60;66.40;;;;;;5034498;28;20111;-72
2024/01/31 15:09:12;;;;;;;15.93;11.20;;;15.50;66.60;;;;;;5034198;28;20200;-73
2024/01/31 15:11:38;;;;;;;17.00;10.65;;;15.50;67.20;;;;;;5034307;28;20505;-73
2024/01/31 15:14:04;;;;;;;16.75;11.73;;;15.40;67.60;;;;;;5034996;28;20120;-72
2024/01/31 15:16:32;;;;;;;17.55;10.73;;;15.40;67.80;;;;;;5035694;28;20040;-72
2024/01/31 15:18:59;;;;;;;14.07;10.95;;;15.40;68.10;;;;;;5016410;28;20075;-73
2024/01/31 15:21:25;;;;;;;14.00;10.27;;;15.30;68.40;;;;;;5034555;28;20045;-73
2024/01/31 15:23:50;;;;;;;15.95;11.00;;;15.30;68.80;;;;;;5034353;28;20544;-73
2024/01/31 15:26:16;;;;;;;14.52;10.60;;;15.30;69.30;;;;;;5033438;28;20041;-73
2024/01/31 15:28:42;;;;;;;14.77;10.77;;;15.20;69.70;;;;;;5033322;28;20777;-74
2024/01/31 15:31:08;;;;;;;16.45;10.85;;;15.20;69.90;;;;;;5033240;28;20030;-73
2024/01/31 15:33:34;;;;;;;17.25;10.27;;;15.20;70.20;;;;;;5034833;28;20216;-71
2024/01/31 15:35:59;;;;;;;12.90;8.65;;;15.10;70.30;;;;;;5034321;28;20036;-71
2024/01/31 15:38:25;;;;;;;12.48;9.15;;;15.10;70.30;;;;;;5034103;28;20056;-73
2024/01/31 15:40:51;;;;;;;12.07;8.07;;;15.00;70.50;;;;;;5034557;28;20032;-73
2024/01/31 15:43:17;;;;;;;12.90;7.28;;;15.00;70.60;;;;;;5034109;28;20037;-72
2024/01/31 15:45:43;;;;;;;12.73;8.43;;;14.90;70.90;;;;;;5034206;28;20044;-72
2024/01/31 15:48:09;;;;;;;11.77;6.95;;;14.80;71.00;;;;;;5033684;28;20052;-73
2024/01/31 15:50:36;;;;;;;11.45;7.15;;;14.80;71.30;;;;;;5035579;28;20106;-72
2024/01/31 15:53:02;;;;;;;11.68;7.35;;;14.70;71.40;;;;;;5034803;28;20522;-75
2024/01/31 15:55:28;;;;;;;10.45;7.10;;;14.60;72.20;;;;;;5033588;28;20026;-73
2024/01/31 15:57:53;;;;;;;13.43;7.65;;;14.60;71.90;;;;;;5033370;28;20034;-74
2024/01/31 16:00:20;;;;;;;17.15;10.90;;;14.50;71.90;;;;;;5032826;28;20112;-72
2024/01/31 16:02:46;;;;;;;13.00;8.18;;;14.50;72.10;;;;;;5032116;28;20029;-71
2024/01/31 16:05:12;;;;;;;10.88;7.13;;;14.40;72.30;;;;;;5031362;28;20030;-75
2024/01/31 16:07:38;;;;;;;11.50;7.38;;;14.30;72.50;;;;;;5033302;28;20040;-75
2024/01/31 16:10:04;;;;;;;11.32;7.85;;;14.20;72.80;;;;;;5032651;28;20104;-75
2024/01/31 16:12:30;;;;;;;12.85;7.28;;;14.10;72.80;;;;;;5032782;28;20112;-76
2024/01/31 16:14:56;;;;;;;11.90;7.20;;;14.00;73.10;;;;;;5033360;28;20022;-75
2024/01/31 16:17:22;;;;;;;14.23;8.05;;;13.90;73.30;;;;;;5033333;28;20034;-74
2024/01/31 16:19:48;;;;;;;12.40;7.70;;;13.90;73.60;;;;;;5032694;28;20049;-75
2024/01/31 16:22:15;;;;;;;11.55;8.02;;;13.80;73.90;;;;;;5033033;28;20044;-75
2024/01/31 16:24:42;;;;;;;13.63;6.78;;;13.70;74.00;;;;;;5032829;28;20030;-75
2024/01/31 16:27:07;;;;;;;12.05;7.80;;;13.60;74.30;;;;;;5032870;28;20489;-76
2024/01/31 16:29:33;;;;;;;13.15;7.80;;;13.60;74.50;;;;;;5032980;28;20080;-76
2024/01/31 16:31:59;;;;;;;15.85;7.90;;;13.50;74.70;;;;;;5033155;28;20046;-75
2024/01/31 16:34:24;;;;;;;12.55;8.25;;;13.40;74.80;;;;;;5032818;28;20034;-74
2024/01/31 16:36:53;;;;;;;12.13;8.40;;;13.40;75.20;;;;;;5032976;28;20430;-75
2024/01/31 16:39:19;;;;;;;14.57;8.57;;;13.40;75.40;;;;;;5032866;28;20039;-75
2024/01/31 16:41:47;;;;;;;11.60;8.40;;;13.30;75.40;;;;;;5032872;28;20037;-75
2024/01/31 16:44:13;;;;;;;15.02;8.98;;;13.20;75.30;;;;;;5032839;28;20025;-74
2024/01/31 16:46:40;;;;;;;15.18;9.60;;;13.20;75.60;;;;;;5032974;28;20474;-74
2024/01/31 16:49:05;;;;;;;13.57;9.10;;;13.10;75.80;;;;;;5032376;28;20095;-75
2024/01/31 16:51:31;;;;;;;15.23;9.50;;;13.10;75.90;;;;;;5032745;28;20037;-75
2024/01/31 16:53:57;;;;;;;15.88;9.77;;;13.10;76.10;;;;;;5032771;28;20133;-75
2024/01/31 16:56:23;;;;;;;14.20;9.75;;;13.00;76.10;;;;;;5032997;28;20064;-74
2024/01/31 16:58:49;;;;;;;16.15;10.18;;;13.00;76.40;;;;;;5032501;28;20025;-68
2024/01/31 17:01:16;;;;;;;18.02;10.63;;;13.00;76.60;;;;;;5031507;28;20135;-75
2024/01/31 17:03:42;;;;;;;14.80;10.07;;;12.90;76.70;;;;;;5032322;28;20041;-74
2024/01/31 17:06:07;;;;;;;15.43;10.43;;;12.90;76.80;;;;;;5031832;28;20041;-75
2024/01/31 17:08:33;;;;;;;15.23;12.02;;;12.80;77.00;;;;;;5032097;28;20091;-74
2024/01/31 17:11:02;;;;;;;14.98;11.90;;;12.80;77.30;;;;;;5031039;28;20067;-75
2024/01/31 17:13:28;;;;;;;15.98;12.18;;;12.80;77.40;;;;;;5032514;28;20041;-79
2024/01/31 17:15:54;;;;;;;15.18;11.07;;;12.70;77.50;;;;;;5030924;28;20438;-78
2024/01/31 17:18:19;;;;;;;17.70;12.32;;;12.70;77.70;;;;;;5032257;28;20062;-74
2024/01/31 17:20:46;;;;;;;16.88;12.65;;;12.70;78.10;;;;;;5032507;28;20392;-73
2024/01/31 17:23:14;;;;;;;22.38;16.67;;;12.60;78.30;;;;;;5030793;28;20119;-76
2024/01/31 17:25:41;;;;;;;18.05;13.13;;;12.60;78.40;;;;;;5030939;28;20029;-77
2024/01/31 17:28:07;;;;;;;17.85;13.02;;;12.60;79.00;;;;;;5032055;28;20029;-75
2024/01/31 17:30:33;;;;;;;16.00;11.90;;;12.50;79.20;;;;;;5031953;28;20114;-73
2024/01/31 17:32:59;;;;;;;20.00;13.00;;;12.50;79.40;;;;;;5032397;28;20045;-75
2024/01/31 17:35:24;;;;;;;19.13;12.80;;;12.50;79.60;;;;;;5031930;28;20116;-71
2024/01/31 17:37:50;;;;;;;18.50;12.80;;;12.50;79.90;;;;;;5031817;28;20034;-72
2024/01/31 17:40:16;;;;;;;26.48;13.70;;;12.40;79.90;;;;;;5030649;28;20032;-72
2024/01/31 17:42:42;;;;;;;23.90;13.85;;;12.40;80.10;;;;;;5030482;28;20033;-72
2024/01/31 17:45:11;;;;;;;16.92;13.50;;;12.40;80.30;;;;;;5031538;28;20045;-71
2024/01/31 17:47:38;;;;;;;21.38;14.18;;;12.40;80.50;;;;;;5031971;28;20044;-72
2024/01/31 17:50:06;;;;;;;22.00;14.68;;;12.40;80.70;;;;;;5031648;28;20037;-71
2024/01/31 17:52:32;;;;;;;19.40;14.35;;;12.40;81.10;;;;;;5031757;28;20040;-72
2024/01/31 17:54:57;;;;;;;22.13;15.00;;;12.40;81.10;;;;;;5031657;28;20025;-72
2024/01/31 17:57:23;;;;;;;16.20;14.02;;;12.30;81.10;;;;;;5032141;28;20079;-71
2024/01/31 17:59:49;;;;;;;25.95;16.38;;;12.30;81.20;;;;;;5031951;28;20040;-72
2024/01/31 18:02:15;;;;;;;18.80;14.40;;;12.30;81.70;;;;;;5031772;28;20036;-73
2024/01/31 18:04:41;;;;;;;20.42;13.63;;;12.20;81.80;;;;;;5032175;28;20037;-72
2024/01/31 18:07:06;;;;;;;19.73;14.05;;;12.20;82.00;;;;;;5032028;28;20514;-71
2024/01/31 18:09:32;;;;;;;18.02;13.82;;;12.20;82.30;;;;;;5031669;28;20033;-72
2024/01/31 18:11:58;;;;;;;20.08;13.43;;;12.20;82.50;;;;;;5031421;28;20559;-71
2024/01/31 18:14:24;;;;;;;21.52;13.80;;;12.10;82.60;;;;;;5030401;28;20084;-70
2024/01/31 18:16:49;;;;;;;21.27;12.85;;;12.10;82.70;;;;;;5032464;28;20064;-70
2024/01/31 18:19:15;;;;;;;18.35;13.40;;;12.10;82.70;;;;;;5031507;28;20041;-72
2024/01/31 18:21:41;;;;;;;19.23;13.35;;;12.10;83.00;;;;;;5031608;28;20052;-71
2024/01/31 18:24:07;;;;;;;18.98;14.30;;;12.10;83.00;;;;;;5031676;28;20045;-72
2024/01/31 18:26:33;;;;;;;24.05;14.30;;;12.00;83.20;;;;;;5032481;28;20029;-72
2024/01/31 18:28:59;;;;;;;22.67;14.05;;;12.00;83.30;;;;;;5035416;28;20045;-71
2024/01/31 18:31:25;;;;;;;21.67;14.77;;;12.00;83.60;;;;;;5035763;28;20056;-71
2024/01/31 18:33:52;;;;;;;20.63;14.07;;;12.00;83.60;;;;;;5035570;28;20383;-72
2024/01/31 18:36:18;;;;;;;21.88;15.23;;;12.00;83.80;;;;;;5035064;28;20037;-71
2024/01/31 18:38:44;;;;;;;21.50;15.05;;;11.90;84.00;;;;;;5035426;28;20049;-71
2024/01/31 18:41:10;;;;;;;24.55;16.25;;;11.90;83.90;;;;;;5034963;28;20381;-71
2024/01/31 18:43:36;;;;;;;28.60;17.13;;;11.90;84.10;;;;;;5035089;28;20036;-72
2024/01/31 18:46:05;;;;;;;33.47;17.15;;;11.90;84.20;;;;;;5034734;28;20030;-71
2024/01/31 18:48:32;;;;;;;28.40;18.23;;;11.80;84.40;;;;;;5034787;28;20036;-71
2024/01/31 18:50:59;;;;;;;24.92;18.40;;;11.80;84.40;;;;;;5034742;28;20392;-72
2024/01/31 18:53:24;;;;;;;33.00;20.98;;;11.80;84.70;;;;;;5034586;28;20085;-71
2024/01/31 18:55:50;;;;;;;30.08;21.08;;;11.70;84.60;;;;;;5035079;28;20041;-72
2024/01/31 18:58:16;;;;;;;30.67;21.08;;;11.70;84.60;;;;;;5034508;28;20399;-70
2024/01/31 19:00:42;;;;;;;34.70;22.75;;;11.60;84.80;;;;;;5034962;28;20482;-72
2024/01/31 19:03:08;;;;;;;32.63;23.25;;;11.60;85.00;;;;;;5034651;28;20502;-72
2024/01/31 19:05:34;;;;;;;31.25;24.35;;;11.60;84.90;;;;;;5034175;28;20036;-71
2024/01/31 19:07:59;;;;;;;35.40;23.80;;;11.50;85.40;;;;;;5034741;28;20504;-71
2024/01/31 19:10:25;;;;;;;33.80;24.20;;;11.50;85.00;;;;;;5034808;28;20034;-71
2024/01/31 19:12:51;;;;;;;33.55;23.08;;;11.50;85.20;;;;;;5034429;28;20175;-71
2024/01/31 19:15:17;;;;;;;35.03;24.00;;;11.50;85.40;;;;;;5034899;28;20075;-71
